Terminal Aerodrome Forecast
Issued by NWS

Home | Current Version | Previous Version | Text Only | Print | Product List | Glossary Off
Versions: 1 2 3 4 5 6 7 8 9 10 11 12 13 14 15 16 17 18

000
FTUS43 KBIS 231730
TAFMOT
TAF
KMOT 231730Z 2318/2418 21004KT P6SM FEW080 FEW250
     FM232300 14007KT P6SM FEW100 FEW250
     FM241100 17008KT P6SM FEW110 FEW250 WS020/20040KT
     FM241300 17011KT P6SM FEW110 SCT200
     FM241600 17014G24KT P6SM FEW110 SCT200=

USA.gov is the U.S. government's official web portal to all federal, state and local government web resources and services.